RYR93FF EDDN-LGSA
Flight info
| Callsign | RYR93FF |
|---|---|
| Flight time | 2h 39m |
| Altitude | 35000 |
| Route | RODIS1G RODIS L604 LAMSI DCT BAGSI DCT PETOV DCT PETAK DCT DIMIS UL604 TRL UL612 RUSOS |
| Aircraft | B738/M-SDE2E3FGHIRWXY/LB1 |
Departure
| Time | 2026-05-06 18:45 |
|---|---|
| Airport | Nuremberg Airport (EDDN) |
Arrival
| Time | 2026-05-06 21:25 |
|---|---|
| Airport | Chania International Airport (LGSA) |
| Time | Latitude | Longitude | Altitude | Speed | Heading |
|---|---|---|---|---|---|
| 2026-05-06 17:50 | 49.49518 | 11.07852 | 1025 ft | 0 kts | 188° |
| 2026-05-06 18:32 | 49.49527 | 11.07854 | 1028 ft | 4 kts | 185° |
| 2026-05-06 18:33 | 49.49553 | 11.07854 | 1029 ft | 4 kts | 166° |
| 2026-05-06 18:33 | 49.49576 | 11.07838 | 1029 ft | 4 kts | 124° |
| 2026-05-06 18:33 | 49.49581 | 11.07821 | 1029 ft | 0 kts | 98° |
| 2026-05-06 18:40 | 49.49581 | 11.07829 | 1029 ft | 3 kts | 98° |
| 2026-05-06 18:40 | 49.49576 | 11.07878 | 1030 ft | 7 kts | 98° |
| 2026-05-06 18:40 | 49.49567 | 11.07964 | 1031 ft | 8 kts | 98° |
| 2026-05-06 18:41 | 49.49559 | 11.08050 | 1031 ft | 8 kts | 99° |
| 2026-05-06 18:41 | 49.49551 | 11.08134 | 1031 ft | 8 kts | 98° |
| 2026-05-06 18:41 | 49.49542 | 11.08219 | 1032 ft | 8 kts | 98° |
| 2026-05-06 18:41 | 49.49535 | 11.08302 | 1034 ft | 8 kts | 95° |
| 2026-05-06 18:42 | 49.49568 | 11.08351 | 1035 ft | 7 kts | 8° |
| 2026-05-06 18:42 | 49.49613 | 11.08384 | 1035 ft | 8 kts | 57° |
| 2026-05-06 18:42 | 49.49611 | 11.08484 | 1037 ft | 11 kts | 99° |
| 2026-05-06 18:42 | 49.49597 | 11.08624 | 1040 ft | 17 kts | 98° |
| 2026-05-06 18:43 | 49.49577 | 11.08823 | 1043 ft | 21 kts | 99° |
| 2026-05-06 18:43 | 49.49555 | 11.09051 | 1046 ft | 21 kts | 98° |
| 2026-05-06 18:43 | 49.49532 | 11.09274 | 1050 ft | 21 kts | 99° |
| 2026-05-06 18:43 | 49.49573 | 11.09445 | 1056 ft | 14 kts | 53° |
| 2026-05-06 18:44 | 49.49622 | 11.09544 | 1058 ft | 11 kts | 46° |
| 2026-05-06 18:44 | 49.49692 | 11.09563 | 1060 ft | 11 kts | 327° |
| 2026-05-06 18:44 | 49.49700 | 11.09536 | 1060 ft | 0 kts | 277° |
| 2026-05-06 18:44 | 49.49715 | 11.09362 | 1054 ft | 49 kts | 278° |
| 2026-05-06 18:45 | 49.49802 | 11.08480 | 1034 ft | 117 kts | 278° |
| 2026-05-06 18:45 | 49.49948 | 11.06959 | 1079 ft | 165 kts | 276° |
| 2026-05-06 18:45 | 49.50119 | 11.05189 | 1742 ft | 169 kts | 277° |
| 2026-05-06 18:45 | 49.50238 | 11.03973 | 2258 ft | 173 kts | 278° |
| 2026-05-06 18:46 | 49.50481 | 11.01412 | 2949 ft | 195 kts | 278° |
| 2026-05-06 18:46 | 49.50678 | 10.99238 | 3281 ft | 212 kts | 278° |
| 2026-05-06 18:46 | 49.50930 | 10.96849 | 3501 ft | 240 kts | 287° |
| 2026-05-06 18:46 | 49.51818 | 10.94613 | 4141 ft | 252 kts | 313° |
| 2026-05-06 18:47 | 49.53263 | 10.93026 | 4908 ft | 261 kts | 334° |
| 2026-05-06 18:47 | 49.55069 | 10.92496 | 5648 ft | 270 kts | 358° |
| 2026-05-06 18:47 | 49.56968 | 10.92544 | 6426 ft | 275 kts | 359° |
| 2026-05-06 18:47 | 49.58897 | 10.92610 | 7160 ft | 280 kts | 359° |
| 2026-05-06 18:48 | 49.60855 | 10.92674 | 7905 ft | 284 kts | 359° |
| 2026-05-06 18:48 | 49.62827 | 10.93023 | 8625 ft | 291 kts | 19° |
| 2026-05-06 18:48 | 49.64480 | 10.94821 | 9351 ft | 297 kts | 52° |
| 2026-05-06 18:48 | 49.65347 | 10.97694 | 10067 ft | 299 kts | 79° |
| 2026-05-06 18:49 | 49.65470 | 11.00984 | 10332 ft | 319 kts | 98° |
| 2026-05-06 18:49 | 49.65024 | 11.04436 | 10556 ft | 338 kts | 107° |
| 2026-05-06 18:49 | 49.64351 | 11.07975 | 11031 ft | 348 kts | 109° |
| 2026-05-06 18:49 | 49.63615 | 11.11564 | 11721 ft | 352 kts | 109° |
| 2026-05-06 18:50 | 49.62860 | 11.15168 | 12482 ft | 354 kts | 112° |
| 2026-05-06 18:50 | 49.61779 | 11.18586 | 13218 ft | 354 kts | 122° |
| 2026-05-06 18:50 | 49.60515 | 11.21862 | 13890 ft | 358 kts | 123° |
| 2026-05-06 18:50 | 49.59208 | 11.25151 | 14539 ft | 360 kts | 124° |
| 2026-05-06 18:51 | 49.57895 | 11.28452 | 15199 ft | 363 kts | 124° |
| 2026-05-06 18:51 | 49.56574 | 11.31790 | 15798 ft | 367 kts | 124° |
| 2026-05-06 18:51 | 49.55243 | 11.35177 | 16378 ft | 372 kts | 123° |
| 2026-05-06 18:51 | 49.53902 | 11.38608 | 17014 ft | 375 kts | 123° |
| 2026-05-06 18:52 | 49.52573 | 11.42020 | 17625 ft | 378 kts | 123° |
| 2026-05-06 18:52 | 49.51214 | 11.45514 | 18204 ft | 382 kts | 123° |
| 2026-05-06 18:52 | 49.49844 | 11.49040 | 18726 ft | 385 kts | 123° |
| 2026-05-06 18:52 | 49.48466 | 11.52583 | 19272 ft | 387 kts | 123° |
| 2026-05-06 18:53 | 49.47073 | 11.56163 | 19800 ft | 390 kts | 124° |
| 2026-05-06 18:53 | 49.45674 | 11.59755 | 20320 ft | 393 kts | 124° |
| 2026-05-06 18:53 | 49.44262 | 11.63373 | 20842 ft | 396 kts | 124° |
| 2026-05-06 18:53 | 49.42841 | 11.67011 | 21339 ft | 399 kts | 124° |
| 2026-05-06 18:54 | 49.41890 | 11.69442 | 21648 ft | 401 kts | 124° |
| 2026-05-06 18:54 | 49.40441 | 11.73141 | 22042 ft | 407 kts | 124° |
| 2026-05-06 18:54 | 49.38975 | 11.76879 | 22523 ft | 410 kts | 124° |
| 2026-05-06 18:54 | 49.37500 | 11.80635 | 23024 ft | 412 kts | 124° |
| 2026-05-06 18:55 | 49.36013 | 11.84416 | 23491 ft | 415 kts | 125° |
| 2026-05-06 18:55 | 49.34519 | 11.88211 | 23939 ft | 415 kts | 125° |
| 2026-05-06 18:55 | 49.33022 | 11.92008 | 24410 ft | 416 kts | 125° |
| 2026-05-06 18:55 | 49.31523 | 11.95804 | 24832 ft | 417 kts | 126° |
| 2026-05-06 18:56 | 49.30013 | 11.99623 | 25222 ft | 419 kts | 126° |
| 2026-05-06 18:56 | 49.28497 | 12.03450 | 25619 ft | 421 kts | 126° |
| 2026-05-06 18:56 | 49.26975 | 12.07287 | 26016 ft | 422 kts | 126° |
| 2026-05-06 18:56 | 49.25442 | 12.11142 | 26304 ft | 426 kts | 126° |
| 2026-05-06 18:57 | 49.23896 | 12.15026 | 26602 ft | 429 kts | 126° |
| 2026-05-06 18:57 | 49.22336 | 12.18941 | 26799 ft | 432 kts | 127° |
| 2026-05-06 18:57 | 49.20788 | 12.22819 | 26780 ft | 432 kts | 127° |
| 2026-05-06 18:57 | 49.19226 | 12.26733 | 26767 ft | 428 kts | 127° |
| 2026-05-06 18:58 | 49.17673 | 12.30622 | 26772 ft | 427 kts | 127° |
| 2026-05-06 18:58 | 49.16122 | 12.34493 | 26794 ft | 429 kts | 127° |
| 2026-05-06 18:58 | 49.14561 | 12.38380 | 26788 ft | 430 kts | 127° |
| 2026-05-06 18:58 | 49.12990 | 12.42286 | 26795 ft | 432 kts | 127° |
| 2026-05-06 18:59 | 49.11405 | 12.46219 | 26990 ft | 436 kts | 127° |
| 2026-05-06 18:59 | 49.09806 | 12.50181 | 27227 ft | 440 kts | 127° |
| 2026-05-06 18:59 | 49.08199 | 12.54161 | 27632 ft | 441 kts | 127° |
| 2026-05-06 18:59 | 49.06594 | 12.58134 | 28072 ft | 440 kts | 127° |
| 2026-05-06 19:00 | 49.04980 | 12.62121 | 28416 ft | 442 kts | 127° |
| 2026-05-06 19:00 | 49.03383 | 12.66058 | 28737 ft | 443 kts | 127° |
| 2026-05-06 19:00 | 49.01756 | 12.70064 | 29031 ft | 446 kts | 127° |
| 2026-05-06 19:00 | 49.00117 | 12.74091 | 29331 ft | 448 kts | 127° |
| 2026-05-06 19:01 | 48.98467 | 12.78142 | 29634 ft | 450 kts | 127° |
| 2026-05-06 19:01 | 48.96813 | 12.82195 | 29928 ft | 451 kts | 127° |
| 2026-05-06 19:01 | 48.95159 | 12.86245 | 30247 ft | 451 kts | 127° |
| 2026-05-06 19:01 | 48.93505 | 12.90290 | 30624 ft | 449 kts | 127° |
| 2026-05-06 19:02 | 48.91850 | 12.94330 | 30746 ft | 453 kts | 128° |
| 2026-05-06 19:02 | 48.88492 | 13.02499 | 31233 ft | 453 kts | 128° |
| 2026-05-06 19:02 | 48.86832 | 13.06539 | 31711 ft | 449 kts | 128° |
| 2026-05-06 19:03 | 48.85185 | 13.10539 | 32149 ft | 445 kts | 128° |
| 2026-05-06 19:03 | 48.83544 | 13.14516 | 32515 ft | 444 kts | 129° |
| 2026-05-06 19:03 | 48.81905 | 13.18476 | 32783 ft | 444 kts | 129° |
| 2026-05-06 19:03 | 48.80258 | 13.22448 | 32948 ft | 446 kts | 129° |
| 2026-05-06 19:04 | 48.78591 | 13.26457 | 32961 ft | 452 kts | 129° |
| 2026-05-06 19:04 | 48.76909 | 13.30499 | 33159 ft | 453 kts | 129° |
| 2026-05-06 19:04 | 48.75239 | 13.34519 | 33561 ft | 450 kts | 130° |
| 2026-05-06 19:04 | 48.73575 | 13.38521 | 33888 ft | 447 kts | 130° |
| 2026-05-06 19:05 | 48.71915 | 13.42503 | 34092 ft | 448 kts | 130° |
| 2026-05-06 19:05 | 48.70268 | 13.46445 | 34272 ft | 449 kts | 129° |
| 2026-05-06 19:05 | 48.68598 | 13.50435 | 34484 ft | 448 kts | 129° |
| 2026-05-06 19:05 | 48.66926 | 13.54423 | 34703 ft | 447 kts | 130° |
| 2026-05-06 19:06 | 48.65090 | 13.58193 | 34686 ft | 443 kts | 139° |
| 2026-05-06 19:06 | 48.62914 | 13.61398 | 34720 ft | 432 kts | 149° |
| 2026-05-06 19:06 | 48.60566 | 13.64211 | 34730 ft | 429 kts | 150° |
| 2026-05-06 19:07 | 48.55878 | 13.69721 | 34717 ft | 425 kts | 150° |
| 2026-05-06 19:07 | 48.51237 | 13.75211 | 34715 ft | 423 kts | 149° |
| 2026-05-06 19:08 | 48.46626 | 13.80709 | 34689 ft | 421 kts | 149° |
| 2026-05-06 19:08 | 48.42025 | 13.86197 | 34687 ft | 421 kts | 149° |
| 2026-05-06 19:09 | 48.37443 | 13.91657 | 34692 ft | 423 kts | 149° |
| 2026-05-06 19:09 | 48.32808 | 13.97156 | 34703 ft | 429 kts | 149° |
| 2026-05-06 19:10 | 48.28111 | 14.02724 | 34703 ft | 431 kts | 149° |
| 2026-05-06 19:10 | 48.23403 | 14.08296 | 34773 ft | 431 kts | 149° |
| 2026-05-06 19:11 | 48.18689 | 14.13858 | 34764 ft | 430 kts | 149° |
| 2026-05-06 19:11 | 48.13987 | 14.19393 | 34771 ft | 430 kts | 149° |
| 2026-05-06 19:12 | 48.09290 | 14.24910 | 34754 ft | 429 kts | 149° |
| 2026-05-06 19:12 | 48.04566 | 14.30336 | 34742 ft | 426 kts | 152° |
| 2026-05-06 19:13 | 47.99680 | 14.35284 | 34739 ft | 423 kts | 154° |
| 2026-05-06 19:13 | 47.94760 | 14.40114 | 34720 ft | 423 kts | 154° |
| 2026-05-06 19:14 | 47.89861 | 14.44950 | 34717 ft | 421 kts | 154° |
| 2026-05-06 19:14 | 47.84996 | 14.49778 | 34745 ft | 421 kts | 154° |
| 2026-05-06 19:15 | 47.80106 | 14.54630 | 34749 ft | 423 kts | 154° |
| 2026-05-06 19:15 | 47.75192 | 14.59496 | 34752 ft | 426 kts | 154° |
| 2026-05-06 19:16 | 47.70270 | 14.64363 | 34765 ft | 428 kts | 154° |
| 2026-05-06 19:16 | 47.65306 | 14.69260 | 34784 ft | 429 kts | 154° |
| 2026-05-06 19:17 | 47.60314 | 14.74173 | 34808 ft | 431 kts | 154° |
| 2026-05-06 19:17 | 47.55306 | 14.79089 | 34798 ft | 432 kts | 154° |
| 2026-05-06 19:18 | 47.50289 | 14.84004 | 34821 ft | 433 kts | 154° |
| 2026-05-06 19:18 | 47.45260 | 14.88920 | 34830 ft | 433 kts | 154° |
| 2026-05-06 19:19 | 47.40228 | 14.93826 | 34854 ft | 433 kts | 154° |
| 2026-05-06 19:19 | 47.35181 | 14.98734 | 34846 ft | 434 kts | 154° |
| 2026-05-06 19:20 | 47.30155 | 15.03610 | 34836 ft | 435 kts | 154° |
| 2026-05-06 19:20 | 47.25099 | 15.08506 | 34843 ft | 434 kts | 153° |
| 2026-05-06 19:21 | 47.20042 | 15.13391 | 34841 ft | 435 kts | 153° |
| 2026-05-06 19:21 | 47.14988 | 15.18262 | 34848 ft | 434 kts | 153° |
| 2026-05-06 19:22 | 47.09921 | 15.23134 | 34861 ft | 434 kts | 153° |
| 2026-05-06 19:22 | 47.04870 | 15.27979 | 34850 ft | 434 kts | 153° |
| 2026-05-06 19:23 | 46.99818 | 15.32815 | 34858 ft | 433 kts | 153° |
| 2026-05-06 19:23 | 46.94782 | 15.37623 | 34852 ft | 432 kts | 153° |
| 2026-05-06 19:24 | 46.89746 | 15.42421 | 34858 ft | 432 kts | 153° |
| 2026-05-06 19:24 | 46.84735 | 15.47182 | 34861 ft | 432 kts | 153° |
| 2026-05-06 19:25 | 46.79690 | 15.51966 | 34859 ft | 433 kts | 153° |
| 2026-05-06 19:25 | 46.74631 | 15.56753 | 34861 ft | 434 kts | 153° |
| 2026-05-06 19:26 | 46.69560 | 15.61540 | 34852 ft | 434 kts | 153° |
| 2026-05-06 19:26 | 46.64484 | 15.66321 | 34880 ft | 435 kts | 153° |
| 2026-05-06 19:27 | 46.59386 | 15.71112 | 34894 ft | 437 kts | 153° |
| 2026-05-06 19:27 | 46.54265 | 15.75914 | 34881 ft | 439 kts | 153° |
| 2026-05-06 19:28 | 46.49132 | 15.80717 | 34883 ft | 439 kts | 153° |
| 2026-05-06 19:28 | 46.43984 | 15.85523 | 34886 ft | 440 kts | 153° |
| 2026-05-06 19:29 | 46.38827 | 15.90327 | 34885 ft | 440 kts | 153° |
| 2026-05-06 19:29 | 46.33669 | 15.95122 | 34895 ft | 440 kts | 153° |
| 2026-05-06 19:30 | 46.28489 | 15.99760 | 34893 ft | 438 kts | 156° |
| 2026-05-06 19:30 | 46.23172 | 16.04016 | 34885 ft | 436 kts | 157° |
| 2026-05-06 19:31 | 46.17842 | 16.08198 | 34900 ft | 435 kts | 157° |
| 2026-05-06 19:31 | 46.09864 | 16.14516 | 34898 ft | 435 kts | 156° |
| 2026-05-06 19:32 | 46.04564 | 16.18733 | 34918 ft | 436 kts | 156° |
| 2026-05-06 19:32 | 45.99245 | 16.22960 | 34910 ft | 437 kts | 156° |
| 2026-05-06 19:33 | 45.93945 | 16.27163 | 34926 ft | 438 kts | 156° |
| 2026-05-06 19:33 | 45.88591 | 16.31398 | 34930 ft | 440 kts | 156° |
| 2026-05-06 19:34 | 45.83217 | 16.35640 | 34917 ft | 441 kts | 156° |
| 2026-05-06 19:34 | 45.77834 | 16.39880 | 34919 ft | 442 kts | 156° |
| 2026-05-06 19:35 | 45.72433 | 16.44125 | 34927 ft | 443 kts | 156° |
| 2026-05-06 19:35 | 45.67021 | 16.48369 | 34920 ft | 443 kts | 156° |
| 2026-05-06 19:36 | 45.61609 | 16.52604 | 34917 ft | 443 kts | 156° |
| 2026-05-06 19:36 | 45.56194 | 16.56830 | 34920 ft | 443 kts | 156° |
| 2026-05-06 19:37 | 45.51697 | 16.60334 | 34909 ft | 443 kts | 156° |
| 2026-05-06 19:37 | 45.46290 | 16.64538 | 34916 ft | 442 kts | 156° |
| 2026-05-06 19:38 | 45.40924 | 16.68701 | 34919 ft | 441 kts | 156° |
| 2026-05-06 19:38 | 45.35529 | 16.72877 | 34922 ft | 441 kts | 156° |
| 2026-05-06 19:39 | 45.30144 | 16.77036 | 34919 ft | 440 kts | 156° |
| 2026-05-06 19:39 | 45.24759 | 16.81187 | 34909 ft | 440 kts | 157° |
| 2026-05-06 19:40 | 45.19371 | 16.85330 | 34920 ft | 440 kts | 157° |
| 2026-05-06 19:40 | 45.13986 | 16.89462 | 34932 ft | 441 kts | 157° |
| 2026-05-06 19:41 | 45.08579 | 16.93601 | 34926 ft | 442 kts | 158° |
| 2026-05-06 19:41 | 45.03159 | 16.97742 | 34934 ft | 443 kts | 158° |
| 2026-05-06 19:42 | 44.97731 | 17.01881 | 34934 ft | 444 kts | 158° |
| 2026-05-06 19:42 | 44.92282 | 17.06026 | 34928 ft | 445 kts | 158° |
| 2026-05-06 19:43 | 44.86859 | 17.10142 | 34938 ft | 446 kts | 159° |
| 2026-05-06 19:43 | 44.81392 | 17.14283 | 34939 ft | 447 kts | 159° |
| 2026-05-06 19:44 | 44.75912 | 17.18425 | 34945 ft | 447 kts | 159° |
| 2026-05-06 19:44 | 44.70423 | 17.22564 | 34939 ft | 448 kts | 159° |
| 2026-05-06 19:45 | 44.64919 | 17.26707 | 34924 ft | 449 kts | 159° |
| 2026-05-06 19:45 | 44.59409 | 17.30844 | 34951 ft | 449 kts | 159° |
| 2026-05-06 19:46 | 44.53893 | 17.34977 | 34958 ft | 450 kts | 159° |
| 2026-05-06 19:46 | 44.48363 | 17.39111 | 34970 ft | 450 kts | 159° |
| 2026-05-06 19:47 | 44.42831 | 17.43238 | 34979 ft | 451 kts | 159° |
| 2026-05-06 19:47 | 44.37286 | 17.47366 | 34960 ft | 451 kts | 159° |
| 2026-05-06 19:48 | 44.31731 | 17.51493 | 34990 ft | 451 kts | 159° |
| 2026-05-06 19:48 | 44.26230 | 17.55571 | 35005 ft | 451 kts | 159° |
| 2026-05-06 19:49 | 44.20685 | 17.59672 | 34995 ft | 451 kts | 159° |
| 2026-05-06 19:49 | 44.15105 | 17.63791 | 35008 ft | 450 kts | 159° |
| 2026-05-06 19:50 | 44.09599 | 17.67845 | 35001 ft | 450 kts | 159° |
| 2026-05-06 19:50 | 44.04053 | 17.71919 | 35006 ft | 451 kts | 159° |
| 2026-05-06 19:51 | 43.98496 | 17.75994 | 35015 ft | 451 kts | 159° |
| 2026-05-06 19:51 | 43.92932 | 17.80066 | 35020 ft | 451 kts | 160° |
| 2026-05-06 19:52 | 43.87370 | 17.84127 | 35023 ft | 452 kts | 160° |
| 2026-05-06 19:52 | 43.81808 | 17.88180 | 35030 ft | 452 kts | 160° |
| 2026-05-06 19:53 | 43.76244 | 17.92225 | 35021 ft | 453 kts | 160° |
| 2026-05-06 19:53 | 43.70658 | 17.96277 | 35040 ft | 454 kts | 160° |
| 2026-05-06 19:54 | 43.65053 | 18.00334 | 35042 ft | 455 kts | 160° |
| 2026-05-06 19:54 | 43.59471 | 18.04368 | 35048 ft | 456 kts | 160° |
| 2026-05-06 19:55 | 43.53810 | 18.08449 | 35043 ft | 456 kts | 160° |
| 2026-05-06 19:55 | 43.48219 | 18.12473 | 35044 ft | 456 kts | 160° |
| 2026-05-06 19:56 | 43.42614 | 18.16498 | 35057 ft | 454 kts | 160° |
| 2026-05-06 19:56 | 43.37019 | 18.20507 | 35053 ft | 452 kts | 160° |
| 2026-05-06 19:57 | 43.31441 | 18.24496 | 35055 ft | 451 kts | 160° |
| 2026-05-06 19:57 | 43.25875 | 18.28467 | 35066 ft | 450 kts | 160° |
| 2026-05-06 19:58 | 43.20333 | 18.32412 | 35069 ft | 448 kts | 160° |
| 2026-05-06 19:58 | 43.14819 | 18.36329 | 35071 ft | 448 kts | 160° |
| 2026-05-06 19:59 | 43.09284 | 18.40253 | 35072 ft | 446 kts | 159° |
| 2026-05-06 19:59 | 43.03774 | 18.44152 | 35054 ft | 446 kts | 159° |
| 2026-05-06 20:00 | 42.98270 | 18.48038 | 35072 ft | 445 kts | 159° |
| 2026-05-06 20:00 | 42.92758 | 18.51922 | 35084 ft | 446 kts | 159° |
| 2026-05-06 20:01 | 42.87246 | 18.55797 | 35064 ft | 446 kts | 159° |
| 2026-05-06 20:01 | 42.81721 | 18.59675 | 35084 ft | 446 kts | 159° |
| 2026-05-06 20:02 | 42.76220 | 18.63528 | 35073 ft | 448 kts | 159° |
| 2026-05-06 20:02 | 42.70666 | 18.67410 | 35086 ft | 450 kts | 159° |
| 2026-05-06 20:03 | 42.65083 | 18.71304 | 35083 ft | 451 kts | 159° |
| 2026-05-06 20:03 | 42.59483 | 18.75203 | 35084 ft | 452 kts | 159° |
| 2026-05-06 20:04 | 42.53874 | 18.79101 | 35069 ft | 453 kts | 159° |
| 2026-05-06 20:04 | 42.48249 | 18.83002 | 35077 ft | 454 kts | 159° |
| 2026-05-06 20:05 | 42.42610 | 18.86904 | 35075 ft | 455 kts | 158° |
| 2026-05-06 20:05 | 42.37005 | 18.90775 | 35088 ft | 454 kts | 158° |
| 2026-05-06 20:06 | 42.31370 | 18.94659 | 35095 ft | 454 kts | 158° |
| 2026-05-06 20:06 | 42.25738 | 18.98533 | 35094 ft | 455 kts | 158° |
| 2026-05-06 20:07 | 42.20090 | 19.02409 | 35082 ft | 455 kts | 158° |
| 2026-05-06 20:07 | 42.14444 | 19.06277 | 35096 ft | 455 kts | 158° |
| 2026-05-06 20:08 | 42.08780 | 19.10149 | 35072 ft | 456 kts | 158° |
| 2026-05-06 20:08 | 42.03106 | 19.14021 | 35075 ft | 456 kts | 158° |
| 2026-05-06 20:09 | 41.97479 | 19.17853 | 35074 ft | 456 kts | 158° |
| 2026-05-06 20:09 | 41.91814 | 19.21703 | 35076 ft | 456 kts | 158° |
| 2026-05-06 20:10 | 41.86147 | 19.25547 | 35078 ft | 456 kts | 158° |
| 2026-05-06 20:10 | 41.80482 | 19.29383 | 35092 ft | 456 kts | 158° |
| 2026-05-06 20:11 | 41.74850 | 19.33318 | 35086 ft | 457 kts | 155° |
| 2026-05-06 20:11 | 41.69336 | 19.37593 | 35087 ft | 458 kts | 154° |
| 2026-05-06 20:12 | 41.63847 | 19.41913 | 35093 ft | 457 kts | 154° |
| 2026-05-06 20:12 | 41.58351 | 19.46190 | 35088 ft | 457 kts | 154° |
| 2026-05-06 20:13 | 41.52871 | 19.50414 | 35078 ft | 457 kts | 154° |
| 2026-05-06 20:13 | 41.47354 | 19.54649 | 35097 ft | 458 kts | 154° |
| 2026-05-06 20:14 | 41.41827 | 19.58884 | 35098 ft | 459 kts | 154° |
| 2026-05-06 20:14 | 41.36280 | 19.63126 | 35100 ft | 460 kts | 154° |
| 2026-05-06 20:15 | 41.30710 | 19.67378 | 35088 ft | 461 kts | 154° |
| 2026-05-06 20:15 | 41.25134 | 19.71627 | 35100 ft | 462 kts | 154° |
| 2026-05-06 20:16 | 41.19588 | 19.75845 | 35101 ft | 463 kts | 154° |
| 2026-05-06 20:16 | 41.13996 | 19.80088 | 35106 ft | 463 kts | 154° |
| 2026-05-06 20:17 | 41.08378 | 19.84344 | 35094 ft | 464 kts | 154° |
| 2026-05-06 20:17 | 41.02768 | 19.88585 | 35098 ft | 464 kts | 154° |
| 2026-05-06 20:18 | 40.97150 | 19.92824 | 35091 ft | 465 kts | 154° |
| 2026-05-06 20:18 | 40.91565 | 19.97028 | 35090 ft | 465 kts | 154° |
| 2026-05-06 20:19 | 40.85948 | 20.01250 | 35103 ft | 465 kts | 154° |
| 2026-05-06 20:19 | 40.80321 | 20.05469 | 35086 ft | 465 kts | 154° |
| 2026-05-06 20:20 | 40.74697 | 20.09679 | 35103 ft | 465 kts | 154° |
| 2026-05-06 20:20 | 40.69069 | 20.13884 | 35107 ft | 465 kts | 154° |
| 2026-05-06 20:21 | 40.63428 | 20.18089 | 35081 ft | 465 kts | 154° |
| 2026-05-06 20:21 | 40.57802 | 20.22276 | 35099 ft | 464 kts | 153° |
| 2026-05-06 20:22 | 40.53122 | 20.25752 | 35096 ft | 464 kts | 153° |
| 2026-05-06 20:22 | 40.47501 | 20.29920 | 35105 ft | 464 kts | 153° |
| 2026-05-06 20:23 | 40.41867 | 20.34089 | 35109 ft | 464 kts | 153° |
| 2026-05-06 20:23 | 40.36233 | 20.38251 | 35117 ft | 465 kts | 153° |
| 2026-05-06 20:24 | 40.30594 | 20.42408 | 35112 ft | 465 kts | 153° |
| 2026-05-06 20:24 | 40.24947 | 20.46563 | 35111 ft | 466 kts | 153° |
| 2026-05-06 20:25 | 40.19324 | 20.50693 | 35120 ft | 467 kts | 153° |
| 2026-05-06 20:25 | 40.13650 | 20.54853 | 35120 ft | 468 kts | 153° |
| 2026-05-06 20:26 | 40.07969 | 20.59009 | 35115 ft | 468 kts | 153° |
| 2026-05-06 20:26 | 40.02145 | 20.62795 | 35122 ft | 467 kts | 158° |
| 2026-05-06 20:27 | 39.96222 | 20.66298 | 35144 ft | 467 kts | 158° |
| 2026-05-06 20:27 | 39.90301 | 20.69829 | 35145 ft | 469 kts | 158° |
| 2026-05-06 20:28 | 39.84375 | 20.73412 | 35149 ft | 469 kts | 158° |
| 2026-05-06 20:28 | 39.78444 | 20.77003 | 35159 ft | 470 kts | 158° |
| 2026-05-06 20:29 | 39.72551 | 20.80562 | 35157 ft | 470 kts | 158° |
| 2026-05-06 20:29 | 39.66642 | 20.84236 | 35160 ft | 471 kts | 154° |
| 2026-05-06 20:30 | 39.57977 | 20.90259 | 35156 ft | 471 kts | 153° |
| 2026-05-06 20:31 | 39.52202 | 20.94270 | 35147 ft | 471 kts | 153° |
| 2026-05-06 20:31 | 39.46410 | 20.98236 | 35140 ft | 471 kts | 154° |
| 2026-05-06 20:32 | 39.40607 | 21.02185 | 35124 ft | 470 kts | 154° |
| 2026-05-06 20:32 | 39.34852 | 21.06092 | 35126 ft | 470 kts | 153° |
| 2026-05-06 20:33 | 39.29064 | 21.10016 | 35123 ft | 470 kts | 153° |
| 2026-05-06 20:33 | 39.23268 | 21.13939 | 35116 ft | 470 kts | 153° |
| 2026-05-06 20:34 | 39.17469 | 21.17858 | 35120 ft | 470 kts | 153° |
| 2026-05-06 20:34 | 39.11676 | 21.21765 | 35118 ft | 470 kts | 153° |
| 2026-05-06 20:35 | 39.05886 | 21.25663 | 35116 ft | 469 kts | 153° |
| 2026-05-06 20:35 | 39.00092 | 21.29556 | 35118 ft | 469 kts | 153° |
| 2026-05-06 20:36 | 38.94317 | 21.33429 | 35117 ft | 468 kts | 153° |
| 2026-05-06 20:36 | 38.88537 | 21.37298 | 35109 ft | 468 kts | 153° |
| 2026-05-06 20:37 | 38.82764 | 21.41157 | 35113 ft | 467 kts | 153° |
| 2026-05-06 20:37 | 38.77046 | 21.44972 | 35125 ft | 466 kts | 153° |
| 2026-05-06 20:38 | 38.71283 | 21.48809 | 35120 ft | 466 kts | 153° |
| 2026-05-06 20:38 | 38.65516 | 21.52636 | 35113 ft | 467 kts | 153° |
| 2026-05-06 20:39 | 38.59743 | 21.56456 | 35104 ft | 467 kts | 153° |
| 2026-05-06 20:39 | 38.53974 | 21.60269 | 35114 ft | 466 kts | 153° |
| 2026-05-06 20:40 | 38.48207 | 21.64076 | 35114 ft | 466 kts | 153° |
| 2026-05-06 20:40 | 38.42438 | 21.67877 | 35112 ft | 466 kts | 153° |
| 2026-05-06 20:41 | 38.36675 | 21.71667 | 35108 ft | 466 kts | 153° |
| 2026-05-06 20:41 | 38.30911 | 21.75451 | 35110 ft | 466 kts | 153° |
| 2026-05-06 20:42 | 38.25189 | 21.79200 | 35121 ft | 465 kts | 153° |
| 2026-05-06 20:42 | 38.19418 | 21.82975 | 35117 ft | 465 kts | 153° |
| 2026-05-06 20:43 | 38.13651 | 21.86741 | 35109 ft | 465 kts | 153° |
| 2026-05-06 20:43 | 38.07901 | 21.90489 | 35114 ft | 464 kts | 154° |
| 2026-05-06 20:44 | 38.02153 | 21.94229 | 35120 ft | 463 kts | 154° |
| 2026-05-06 20:44 | 37.96419 | 21.97953 | 35116 ft | 462 kts | 154° |
| 2026-05-06 20:45 | 37.90696 | 22.01663 | 35115 ft | 461 kts | 154° |
| 2026-05-06 20:45 | 37.84981 | 22.05362 | 35126 ft | 461 kts | 154° |
| 2026-05-06 20:46 | 37.79266 | 22.09054 | 35130 ft | 461 kts | 154° |
| 2026-05-06 20:46 | 37.73591 | 22.12715 | 35135 ft | 460 kts | 154° |
| 2026-05-06 20:47 | 37.67882 | 22.16390 | 35122 ft | 460 kts | 154° |
| 2026-05-06 20:47 | 37.62189 | 22.20050 | 35132 ft | 459 kts | 154° |
| 2026-05-06 20:48 | 37.56498 | 22.23702 | 35126 ft | 458 kts | 154° |
| 2026-05-06 20:48 | 37.50817 | 22.27342 | 35131 ft | 458 kts | 154° |
| 2026-05-06 20:49 | 37.45159 | 22.30960 | 35126 ft | 458 kts | 154° |
| 2026-05-06 20:49 | 37.39892 | 22.35459 | 35121 ft | 460 kts | 136° |
| 2026-05-06 20:50 | 37.35863 | 22.41617 | 35133 ft | 459 kts | 125° |
| 2026-05-06 20:50 | 37.32151 | 22.48231 | 35117 ft | 460 kts | 124° |
| 2026-05-06 20:51 | 37.28477 | 22.54727 | 35118 ft | 460 kts | 125° |
| 2026-05-06 20:51 | 37.24725 | 22.61268 | 35114 ft | 461 kts | 125° |
| 2026-05-06 20:52 | 37.20955 | 22.67794 | 35110 ft | 461 kts | 125° |
| 2026-05-06 20:52 | 37.17187 | 22.74299 | 35096 ft | 461 kts | 125° |
| 2026-05-06 20:53 | 37.13417 | 22.80801 | 35106 ft | 461 kts | 125° |
| 2026-05-06 20:53 | 37.09640 | 22.87302 | 35090 ft | 462 kts | 126° |
| 2026-05-06 20:54 | 37.05899 | 22.93729 | 35069 ft | 451 kts | 126° |
| 2026-05-06 20:54 | 37.04061 | 22.96882 | 34754 ft | 445 kts | 126° |
| 2026-05-06 20:54 | 37.02257 | 22.99974 | 34480 ft | 438 kts | 126° |
| 2026-05-06 20:54 | 37.00460 | 23.03052 | 34096 ft | 435 kts | 125° |
| 2026-05-06 20:55 | 36.98680 | 23.06098 | 33692 ft | 431 kts | 126° |
| 2026-05-06 20:55 | 36.96913 | 23.09119 | 33294 ft | 428 kts | 126° |
| 2026-05-06 20:55 | 36.95160 | 23.12113 | 32914 ft | 424 kts | 126° |
| 2026-05-06 20:55 | 36.93422 | 23.15079 | 32540 ft | 421 kts | 126° |
| 2026-05-06 20:56 | 36.91695 | 23.18024 | 32180 ft | 418 kts | 126° |
| 2026-05-06 20:56 | 36.90002 | 23.20909 | 31823 ft | 415 kts | 126° |
| 2026-05-06 20:56 | 36.88300 | 23.23806 | 31460 ft | 412 kts | 126° |
| 2026-05-06 20:56 | 36.86608 | 23.26685 | 31108 ft | 409 kts | 126° |
| 2026-05-06 20:57 | 36.84924 | 23.29547 | 30751 ft | 407 kts | 126° |
| 2026-05-06 20:57 | 36.83252 | 23.32386 | 30407 ft | 405 kts | 126° |
| 2026-05-06 20:57 | 36.81589 | 23.35207 | 30046 ft | 402 kts | 127° |
| 2026-05-06 20:57 | 36.79936 | 23.38004 | 29755 ft | 397 kts | 127° |
| 2026-05-06 20:58 | 36.78303 | 23.40757 | 29417 ft | 393 kts | 127° |
| 2026-05-06 20:58 | 36.76682 | 23.43485 | 29072 ft | 389 kts | 127° |
| 2026-05-06 20:58 | 36.75076 | 23.46186 | 28704 ft | 387 kts | 127° |
| 2026-05-06 20:58 | 36.73479 | 23.48871 | 28337 ft | 384 kts | 127° |
| 2026-05-06 20:59 | 36.71895 | 23.51534 | 27983 ft | 381 kts | 127° |
| 2026-05-06 20:59 | 36.70319 | 23.54179 | 27631 ft | 378 kts | 127° |
| 2026-05-06 20:59 | 36.68754 | 23.56806 | 27285 ft | 376 kts | 126° |
| 2026-05-06 20:59 | 36.67199 | 23.59415 | 26919 ft | 374 kts | 126° |
| 2026-05-06 21:00 | 36.65671 | 23.61976 | 26592 ft | 371 kts | 126° |
| 2026-05-06 21:00 | 36.64136 | 23.64548 | 26269 ft | 369 kts | 126° |
| 2026-05-06 21:00 | 36.62609 | 23.67103 | 25930 ft | 367 kts | 126° |
| 2026-05-06 21:00 | 36.61086 | 23.69649 | 25599 ft | 365 kts | 126° |
| 2026-05-06 21:01 | 36.59573 | 23.72179 | 25262 ft | 363 kts | 126° |
| 2026-05-06 21:01 | 36.58065 | 23.74697 | 24929 ft | 362 kts | 126° |
| 2026-05-06 21:01 | 36.56563 | 23.77202 | 24601 ft | 361 kts | 126° |
| 2026-05-06 21:01 | 36.55065 | 23.79701 | 24249 ft | 360 kts | 126° |
| 2026-05-06 21:02 | 36.53565 | 23.82200 | 23921 ft | 359 kts | 126° |
| 2026-05-06 21:02 | 36.52075 | 23.84681 | 23560 ft | 358 kts | 126° |
| 2026-05-06 21:02 | 36.50585 | 23.87160 | 23184 ft | 357 kts | 126° |
| 2026-05-06 21:02 | 36.49103 | 23.89625 | 22826 ft | 355 kts | 126° |
| 2026-05-06 21:03 | 36.47646 | 23.92046 | 22483 ft | 353 kts | 126° |
| 2026-05-06 21:03 | 36.46179 | 23.94482 | 22150 ft | 351 kts | 126° |
| 2026-05-06 21:03 | 36.44719 | 23.96906 | 21813 ft | 349 kts | 126° |
| 2026-05-06 21:03 | 36.43268 | 23.99313 | 21486 ft | 347 kts | 126° |
| 2026-05-06 21:04 | 36.41822 | 24.01708 | 21161 ft | 345 kts | 126° |
| 2026-05-06 21:04 | 36.40387 | 24.04084 | 20839 ft | 344 kts | 126° |
| 2026-05-06 21:04 | 36.38951 | 24.06470 | 20409 ft | 346 kts | 126° |
| 2026-05-06 21:04 | 36.37510 | 24.08869 | 20067 ft | 345 kts | 126° |
| 2026-05-06 21:05 | 36.36076 | 24.11259 | 19724 ft | 345 kts | 126° |
| 2026-05-06 21:05 | 36.34644 | 24.13642 | 19404 ft | 343 kts | 126° |
| 2026-05-06 21:05 | 36.33218 | 24.16014 | 19069 ft | 343 kts | 126° |
| 2026-05-06 21:05 | 36.31792 | 24.18384 | 18730 ft | 343 kts | 126° |
| 2026-05-06 21:06 | 36.30368 | 24.20750 | 18397 ft | 342 kts | 126° |
| 2026-05-06 21:06 | 36.28948 | 24.23107 | 18038 ft | 341 kts | 126° |
| 2026-05-06 21:06 | 36.27528 | 24.25463 | 17691 ft | 340 kts | 126° |
| 2026-05-06 21:06 | 36.26116 | 24.27803 | 17357 ft | 338 kts | 126° |
| 2026-05-06 21:07 | 36.25186 | 24.29344 | 17140 ft | 337 kts | 126° |
| 2026-05-06 21:07 | 36.23787 | 24.31659 | 16819 ft | 335 kts | 126° |
| 2026-05-06 21:07 | 36.22323 | 24.33893 | 16484 ft | 334 kts | 138° |
| 2026-05-06 21:07 | 36.19644 | 24.35586 | 16076 ft | 326 kts | 171° |
| 2026-05-06 21:08 | 36.17411 | 24.35693 | 15765 ft | 319 kts | 192° |
| 2026-05-06 21:08 | 36.15251 | 24.35151 | 15477 ft | 316 kts | 196° |
| 2026-05-06 21:08 | 36.13806 | 24.34732 | 15258 ft | 315 kts | 196° |
| 2026-05-06 21:08 | 36.11702 | 24.34108 | 14950 ft | 314 kts | 196° |
| 2026-05-06 21:09 | 36.09586 | 24.33488 | 14781 ft | 308 kts | 196° |
| 2026-05-06 21:09 | 36.07512 | 24.32891 | 14536 ft | 305 kts | 196° |
| 2026-05-06 21:09 | 36.05452 | 24.32308 | 14270 ft | 303 kts | 195° |
| 2026-05-06 21:09 | 36.03398 | 24.31732 | 13990 ft | 302 kts | 195° |
| 2026-05-06 21:10 | 36.01350 | 24.31160 | 13683 ft | 301 kts | 195° |
| 2026-05-06 21:10 | 35.99309 | 24.30591 | 13355 ft | 300 kts | 195° |
| 2026-05-06 21:10 | 35.97278 | 24.30023 | 13059 ft | 299 kts | 195° |
| 2026-05-06 21:10 | 35.95254 | 24.29456 | 12757 ft | 297 kts | 195° |
| 2026-05-06 21:11 | 35.93242 | 24.28893 | 12460 ft | 296 kts | 195° |
| 2026-05-06 21:11 | 35.91238 | 24.28332 | 12168 ft | 294 kts | 195° |
| 2026-05-06 21:11 | 35.89240 | 24.27773 | 11864 ft | 293 kts | 195° |
| 2026-05-06 21:11 | 35.87254 | 24.27218 | 11576 ft | 292 kts | 195° |
| 2026-05-06 21:12 | 35.85260 | 24.26660 | 11195 ft | 295 kts | 195° |
| 2026-05-06 21:12 | 35.83288 | 24.26110 | 10899 ft | 294 kts | 194° |
| 2026-05-06 21:12 | 35.81298 | 24.25555 | 10601 ft | 293 kts | 194° |
| 2026-05-06 21:12 | 35.79308 | 24.25000 | 10308 ft | 292 kts | 194° |
| 2026-05-06 21:13 | 35.77335 | 24.24451 | 10104 ft | 287 kts | 194° |
| 2026-05-06 21:13 | 35.75407 | 24.23914 | 9899 ft | 283 kts | 194° |
| 2026-05-06 21:13 | 35.73488 | 24.23380 | 9597 ft | 282 kts | 194° |
| 2026-05-06 21:13 | 35.71582 | 24.22849 | 9312 ft | 280 kts | 194° |
| 2026-05-06 21:14 | 35.69683 | 24.22321 | 9031 ft | 278 kts | 194° |
| 2026-05-06 21:14 | 35.67799 | 24.21797 | 8755 ft | 277 kts | 194° |
| 2026-05-06 21:14 | 35.65928 | 24.21277 | 8481 ft | 275 kts | 194° |
| 2026-05-06 21:14 | 35.64065 | 24.20759 | 8207 ft | 274 kts | 193° |
| 2026-05-06 21:15 | 35.62211 | 24.20243 | 7933 ft | 272 kts | 193° |
| 2026-05-06 21:15 | 35.60364 | 24.19731 | 7665 ft | 271 kts | 193° |
| 2026-05-06 21:15 | 35.58536 | 24.19224 | 7458 ft | 266 kts | 193° |
| 2026-05-06 21:15 | 35.56754 | 24.18730 | 7341 ft | 259 kts | 193° |
| 2026-05-06 21:16 | 35.55021 | 24.18242 | 7215 ft | 252 kts | 196° |
| 2026-05-06 21:16 | 35.53552 | 24.17242 | 7095 ft | 241 kts | 228° |
| 2026-05-06 21:16 | 35.52779 | 24.15469 | 6901 ft | 231 kts | 259° |
| 2026-05-06 21:16 | 35.52686 | 24.13571 | 6696 ft | 222 kts | 275° |
| 2026-05-06 21:17 | 35.52875 | 24.11730 | 6450 ft | 214 kts | 278° |
| 2026-05-06 21:17 | 35.53095 | 24.09948 | 6220 ft | 207 kts | 278° |
| 2026-05-06 21:17 | 35.53306 | 24.08236 | 6017 ft | 199 kts | 278° |
| 2026-05-06 21:17 | 35.53507 | 24.06568 | 5808 ft | 198 kts | 277° |
| 2026-05-06 21:18 | 35.53703 | 24.04903 | 5607 ft | 196 kts | 277° |
| 2026-05-06 21:18 | 35.53892 | 24.03264 | 5308 ft | 192 kts | 277° |
| 2026-05-06 21:18 | 35.54076 | 24.01635 | 4887 ft | 193 kts | 277° |
| 2026-05-06 21:18 | 35.54259 | 24.00007 | 4484 ft | 191 kts | 277° |
| 2026-05-06 21:19 | 35.54438 | 23.98399 | 4137 ft | 187 kts | 276° |
| 2026-05-06 21:19 | 35.54609 | 23.96869 | 4162 ft | 182 kts | 276° |
| 2026-05-06 21:19 | 35.54786 | 23.95277 | 4190 ft | 191 kts | 277° |
| 2026-05-06 21:19 | 35.55258 | 23.93745 | 4074 ft | 198 kts | 307° |
| 2026-05-06 21:20 | 35.56384 | 23.92802 | 3860 ft | 199 kts | 343° |
| 2026-05-06 21:20 | 35.57744 | 23.92818 | 3651 ft | 198 kts | 18° |
| 2026-05-06 21:20 | 35.58857 | 23.93762 | 3452 ft | 197 kts | 53° |
| 2026-05-06 21:20 | 35.59354 | 23.95301 | 3252 ft | 195 kts | 88° |
| 2026-05-06 21:21 | 35.59100 | 23.96879 | 3029 ft | 184 kts | 113° |
| 2026-05-06 21:21 | 35.58648 | 23.98273 | 2812 ft | 171 kts | 114° |
| 2026-05-06 21:21 | 35.58213 | 23.99586 | 2585 ft | 164 kts | 114° |
| 2026-05-06 21:21 | 35.57788 | 24.00869 | 2357 ft | 161 kts | 114° |
| 2026-05-06 21:22 | 35.57367 | 24.02140 | 2146 ft | 161 kts | 114° |
| 2026-05-06 21:22 | 35.56946 | 24.03416 | 1919 ft | 162 kts | 113° |
| 2026-05-06 21:22 | 35.56525 | 24.04692 | 1729 ft | 161 kts | 114° |
| 2026-05-06 21:22 | 35.56109 | 24.05957 | 1551 ft | 158 kts | 113° |
| 2026-05-06 21:23 | 35.55701 | 24.07221 | 1434 ft | 161 kts | 113° |
| 2026-05-06 21:23 | 35.55283 | 24.08483 | 1350 ft | 159 kts | 113° |
| 2026-05-06 21:23 | 35.54846 | 24.09742 | 1212 ft | 158 kts | 112° |
| 2026-05-06 21:23 | 35.54472 | 24.10982 | 1006 ft | 153 kts | 111° |
| 2026-05-06 21:24 | 35.54083 | 24.12195 | 835 ft | 154 kts | 111° |
| 2026-05-06 21:24 | 35.53678 | 24.13430 | 619 ft | 156 kts | 112° |
| 2026-05-06 21:24 | 35.53296 | 24.14606 | 560 ft | 129 kts | 111° |
| 2026-05-06 21:24 | 35.53044 | 24.15384 | 561 ft | 67 kts | 111° |
| 2026-05-06 21:25 | 35.52941 | 24.15701 | 558 ft | 26 kts | 111° |
| 2026-05-06 21:25 | 35.52881 | 24.15884 | 561 ft | 15 kts | 111° |
| 2026-05-06 21:25 | 35.52942 | 24.15961 | 554 ft | 14 kts | 21° |
| 2026-05-06 21:25 | 35.53000 | 24.15987 | 555 ft | 7 kts | 14° |
| 2026-05-06 21:26 | 35.53042 | 24.15953 | 561 ft | 8 kts | 302° |
| 2026-05-06 21:26 | 35.53067 | 24.15880 | 557 ft | 12 kts | 291° |
| 2026-05-06 21:26 | 35.53107 | 24.15758 | 558 ft | 19 kts | 291° |
| 2026-05-06 21:26 | 35.53161 | 24.15591 | 556 ft | 23 kts | 291° |
| 2026-05-06 21:27 | 35.53222 | 24.15404 | 559 ft | 25 kts | 292° |
| 2026-05-06 21:27 | 35.53288 | 24.15202 | 558 ft | 26 kts | 291° |
| 2026-05-06 21:27 | 35.53358 | 24.14986 | 557 ft | 28 kts | 291° |
| 2026-05-06 21:27 | 35.53433 | 24.14755 | 555 ft | 30 kts | 292° |
| 2026-05-06 21:28 | 35.53511 | 24.14513 | 557 ft | 25 kts | 291° |
| 2026-05-06 21:28 | 35.53559 | 24.14368 | 558 ft | 10 kts | 293° |
| 2026-05-06 21:28 | 35.53623 | 24.14356 | 560 ft | 12 kts | 23° |
| 2026-05-06 21:28 | 35.53692 | 24.14328 | 559 ft | 14 kts | 291° |
| 2026-05-06 21:29 | 35.53731 | 24.14207 | 557 ft | 17 kts | 292° |
| 2026-05-06 21:29 | 35.53776 | 24.14071 | 556 ft | 13 kts | 291° |
| 2026-05-06 21:29 | 35.53797 | 24.14018 | 558 ft | 3 kts | 316° |
| 2026-05-06 21:29 | 35.53832 | 24.14019 | 556 ft | 8 kts | 19° |
| 2026-05-06 21:30 | 35.53876 | 24.14040 | 559 ft | 4 kts | 21° |